sensor_id;sensor_type;location;lat;lon;timestamp;temperature;humidity
49124;DHT22;48506;48.202;16.274;2023-04-06T00:01:40;2.10;72.70
49124;DHT22;48506;48.202;16.274;2023-04-06T00:04:06;2.10;72.60
49124;DHT22;48506;48.202;16.274;2023-04-06T00:06:33;2.10;72.60
49124;DHT22;48506;48.202;16.274;2023-04-06T00:09:00;2.10;72.70
49124;DHT22;48506;48.202;16.274;2023-04-06T00:11:26;2.10;73.00
49124;DHT22;48506;48.202;16.274;2023-04-06T00:13:52;2.00;73.10
49124;DHT22;48506;48.202;16.274;2023-04-06T00:16:18;2.00;73.20
49124;DHT22;48506;48.202;16.274;2023-04-06T00:18:44;2.00;73.20
49124;DHT22;48506;48.202;16.274;2023-04-06T00:21:13;2.00;73.30
49124;DHT22;48506;48.202;16.274;2023-04-06T00:23:40;1.90;73.40
49124;DHT22;48506;48.202;16.274;2023-04-06T00:26:07;1.90;73.40
49124;DHT22;48506;48.202;16.274;2023-04-06T00:28:33;1.90;73.60
49124;DHT22;48506;48.202;16.274;2023-04-06T00:30:59;1.90;73.70
49124;DHT22;48506;48.202;16.274;2023-04-06T00:33:25;1.90;73.80
49124;DHT22;48506;48.202;16.274;2023-04-06T00:35:51;1.80;73.80
49124;DHT22;48506;48.202;16.274;2023-04-06T00:38:17;1.80;73.80
49124;DHT22;48506;48.202;16.274;2023-04-06T00:40:43;1.80;73.70
49124;DHT22;48506;48.202;16.274;2023-04-06T00:43:11;1.80;74.10
49124;DHT22;48506;48.202;16.274;2023-04-06T00:45:39;1.80;74.10
49124;DHT22;48506;48.202;16.274;2023-04-06T00:48:06;1.80;74.20
49124;DHT22;48506;48.202;16.274;2023-04-06T00:50:33;1.80;74.00
49124;DHT22;48506;48.202;16.274;2023-04-06T00:52:59;1.80;74.20
49124;DHT22;48506;48.202;16.274;2023-04-06T00:55:27;1.80;74.00
49124;DHT22;48506;48.202;16.274;2023-04-06T00:57:53;1.80;73.80
49124;DHT22;48506;48.202;16.274;2023-04-06T01:00:20;1.80;74.00
49124;DHT22;48506;48.202;16.274;2023-04-06T01:02:46;1.80;73.80
49124;DHT22;48506;48.202;16.274;2023-04-06T01:05:13;1.80;73.80
49124;DHT22;48506;48.202;16.274;2023-04-06T01:07:39;1.80;73.80
49124;DHT22;48506;48.202;16.274;2023-04-06T01:10:06;1.80;73.70
49124;DHT22;48506;48.202;16.274;2023-04-06T01:12:32;1.80;73.90
49124;DHT22;48506;48.202;16.274;2023-04-06T01:14:58;1.80;73.90
49124;DHT22;48506;48.202;16.274;2023-04-06T01:17:23;1.70;73.90
49124;DHT22;48506;48.202;16.274;2023-04-06T01:19:49;1.80;74.40
49124;DHT22;48506;48.202;16.274;2023-04-06T01:22:16;1.70;74.10
49124;DHT22;48506;48.202;16.274;2023-04-06T01:24:42;1.70;74.40
49124;DHT22;48506;48.202;16.274;2023-04-06T01:27:08;1.70;74.70
49124;DHT22;48506;48.202;16.274;2023-04-06T01:29:34;1.70;75.00
49124;DHT22;48506;48.202;16.274;2023-04-06T01:32:00;1.60;75.00
49124;DHT22;48506;48.202;16.274;2023-04-06T01:34:26;1.60;75.10
49124;DHT22;48506;48.202;16.274;2023-04-06T01:36:53;1.60;74.80
49124;DHT22;48506;48.202;16.274;2023-04-06T01:39:19;1.60;74.70
49124;DHT22;48506;48.202;16.274;2023-04-06T01:41:45;1.60;74.60
49124;DHT22;48506;48.202;16.274;2023-04-06T01:44:16;1.60;74.70
49124;DHT22;48506;48.202;16.274;2023-04-06T01:46:42;1.60;74.70
49124;DHT22;48506;48.202;16.274;2023-04-06T01:49:08;1.60;74.60
49124;DHT22;48506;48.202;16.274;2023-04-06T01:51:34;1.60;74.60
49124;DHT22;48506;48.202;16.274;2023-04-06T01:54:00;1.60;74.60
49124;DHT22;48506;48.202;16.274;2023-04-06T01:56:27;1.60;74.70
49124;DHT22;48506;48.202;16.274;2023-04-06T01:58:53;1.60;75.10
49124;DHT22;48506;48.202;16.274;2023-04-06T02:01:19;1.60;74.80
49124;DHT22;48506;48.202;16.274;2023-04-06T02:03:45;1.50;74.90
49124;DHT22;48506;48.202;16.274;2023-04-06T02:06:11;1.60;74.90
49124;DHT22;48506;48.202;16.274;2023-04-06T02:08:37;1.50;75.10
49124;DHT22;48506;48.202;16.274;2023-04-06T02:11:03;1.50;75.00
49124;DHT22;48506;48.202;16.274;2023-04-06T02:13:28;1.50;75.10
49124;DHT22;48506;48.202;16.274;2023-04-06T02:15:55;1.50;75.00
49124;DHT22;48506;48.202;16.274;2023-04-06T02:18:21;1.50;75.00
49124;DHT22;48506;48.202;16.274;2023-04-06T02:20:47;1.50;75.20
49124;DHT22;48506;48.202;16.274;2023-04-06T02:23:13;1.50;74.90
49124;DHT22;48506;48.202;16.274;2023-04-06T02:25:39;1.50;74.90
49124;DHT22;48506;48.202;16.274;2023-04-06T02:28:04;1.50;75.30
49124;DHT22;48506;48.202;16.274;2023-04-06T02:30:30;1.50;75.20
49124;DHT22;48506;48.202;16.274;2023-04-06T02:33:00;1.40;75.00
49124;DHT22;48506;48.202;16.274;2023-04-06T02:35:28;1.40;75.30
49124;DHT22;48506;48.202;16.274;2023-04-06T02:37:54;1.40;75.30
49124;DHT22;48506;48.202;16.274;2023-04-06T02:40:20;1.40;75.50
49124;DHT22;48506;48.202;16.274;2023-04-06T02:42:46;1.40;75.50
49124;DHT22;48506;48.202;16.274;2023-04-06T02:45:12;1.40;75.30
49124;DHT22;48506;48.202;16.274;2023-04-06T02:47:38;1.40;75.50
49124;DHT22;48506;48.202;16.274;2023-04-06T02:50:04;1.40;75.50
49124;DHT22;48506;48.202;16.274;2023-04-06T02:52:31;1.40;75.50
49124;DHT22;48506;48.202;16.274;2023-04-06T02:54:57;1.30;75.80
49124;DHT22;48506;48.202;16.274;2023-04-06T02:57:23;1.40;75.70
49124;DHT22;48506;48.202;16.274;2023-04-06T02:59:49;1.30;75.50
49124;DHT22;48506;48.202;16.274;2023-04-06T03:02:15;1.30;75.50
49124;DHT22;48506;48.202;16.274;2023-04-06T03:04:44;1.30;75.60
49124;DHT22;48506;48.202;16.274;2023-04-06T03:07:10;1.30;75.60
49124;DHT22;48506;48.202;16.274;2023-04-06T03:09:39;1.30;75.70
49124;DHT22;48506;48.202;16.274;2023-04-06T03:12:05;1.20;76.00
49124;DHT22;48506;48.202;16.274;2023-04-06T03:14:31;1.20;75.90
49124;DHT22;48506;48.202;16.274;2023-04-06T03:16:57;1.20;76.00
49124;DHT22;48506;48.202;16.274;2023-04-06T03:19:23;1.20;76.20
49124;DHT22;48506;48.202;16.274;2023-04-06T03:21:49;1.10;76.10
49124;DHT22;48506;48.202;16.274;2023-04-06T03:24:15;1.10;76.10
49124;DHT22;48506;48.202;16.274;2023-04-06T03:26:41;1.10;76.20
49124;DHT22;48506;48.202;16.274;2023-04-06T03:29:07;1.10;76.40
49124;DHT22;48506;48.202;16.274;2023-04-06T03:31:34;1.10;76.70
49124;DHT22;48506;48.202;16.274;2023-04-06T03:34:00;1.10;76.70
49124;DHT22;48506;48.202;16.274;2023-04-06T03:36:26;1.00;76.60
49124;DHT22;48506;48.202;16.274;2023-04-06T03:38:52;1.00;76.70
49124;DHT22;48506;48.202;16.274;2023-04-06T03:41:19;1.00;76.80
49124;DHT22;48506;48.202;16.274;2023-04-06T03:43:45;1.00;77.00
49124;DHT22;48506;48.202;16.274;2023-04-06T03:46:11;0.90;77.10
49124;DHT22;48506;48.202;16.274;2023-04-06T03:48:37;0.90;77.30
49124;DHT22;48506;48.202;16.274;2023-04-06T03:51:03;0.90;77.50
49124;DHT22;48506;48.202;16.274;2023-04-06T03:53:29;0.90;77.90
49124;DHT22;48506;48.202;16.274;2023-04-06T03:55:55;0.80;77.70
49124;DHT22;48506;48.202;16.274;2023-04-06T03:58:21;0.90;77.70
49124;DHT22;48506;48.202;16.274;2023-04-06T04:00:47;0.90;77.60
49124;DHT22;48506;48.202;16.274;2023-04-06T04:03:13;0.90;77.50
49124;DHT22;48506;48.202;16.274;2023-04-06T04:05:39;0.90;77.60
49124;DHT22;48506;48.202;16.274;2023-04-06T04:08:05;0.90;77.60
49124;DHT22;48506;48.202;16.274;2023-04-06T04:10:31;0.90;77.60
49124;DHT22;48506;48.202;16.274;2023-04-06T04:12:57;0.90;77.60
49124;DHT22;48506;48.202;16.274;2023-04-06T04:15:22;0.90;77.70
49124;DHT22;48506;48.202;16.274;2023-04-06T04:17:48;0.90;77.60
49124;DHT22;48506;48.202;16.274;2023-04-06T04:20:16;0.90;77.80
49124;DHT22;48506;48.202;16.274;2023-04-06T04:22:42;0.90;77.60
49124;DHT22;48506;48.202;16.274;2023-04-06T04:25:09;0.90;77.70
49124;DHT22;48506;48.202;16.274;2023-04-06T04:27:35;0.90;77.80
49124;DHT22;48506;48.202;16.274;2023-04-06T04:30:01;0.80;77.90
49124;DHT22;48506;48.202;16.274;2023-04-06T04:32:27;0.80;78.00
49124;DHT22;48506;48.202;16.274;2023-04-06T04:34:54;0.80;78.20
49124;DHT22;48506;48.202;16.274;2023-04-06T04:37:20;0.90;78.10
49124;DHT22;48506;48.202;16.274;2023-04-06T04:39:46;0.90;78.20
49124;DHT22;48506;48.202;16.274;2023-04-06T04:42:12;0.80;78.30
49124;DHT22;48506;48.202;16.274;2023-04-06T04:44:38;0.80;78.70
49124;DHT22;48506;48.202;16.274;2023-04-06T04:47:04;0.80;78.30
49124;DHT22;48506;48.202;16.274;2023-04-06T04:49:30;0.80;78.40
49124;DHT22;48506;48.202;16.274;2023-04-06T04:51:56;0.80;78.40
49124;DHT22;48506;48.202;16.274;2023-04-06T04:54:22;0.80;78.50
49124;DHT22;48506;48.202;16.274;2023-04-06T04:56:48;0.80;78.60
49124;DHT22;48506;48.202;16.274;2023-04-06T04:59:14;0.80;78.60
49124;DHT22;48506;48.202;16.274;2023-04-06T05:01:40;0.90;78.70
49124;DHT22;48506;48.202;16.274;2023-04-06T05:04:06;0.90;78.80
49124;DHT22;48506;48.202;16.274;2023-04-06T05:06:32;0.90;78.90
49124;DHT22;48506;48.202;16.274;2023-04-06T05:08:59;0.90;79.50
49124;DHT22;48506;48.202;16.274;2023-04-06T05:11:25;0.90;79.00
49124;DHT22;48506;48.202;16.274;2023-04-06T05:13:52;1.00;79.00
49124;DHT22;48506;48.202;16.274;2023-04-06T05:16:18;0.90;78.90
49124;DHT22;48506;48.202;16.274;2023-04-06T05:18:44;1.00;79.00
49124;DHT22;48506;48.202;16.274;2023-04-06T05:21:11;1.10;79.00
49124;DHT22;48506;48.202;16.274;2023-04-06T05:23:37;1.10;78.80
49124;DHT22;48506;48.202;16.274;2023-04-06T05:26:04;1.10;78.80
49124;DHT22;48506;48.202;16.274;2023-04-06T05:28:31;1.20;78.60
49124;DHT22;48506;48.202;16.274;2023-04-06T05:30:57;1.30;78.60
49124;DHT22;48506;48.202;16.274;2023-04-06T05:33:25;1.40;78.70
49124;DHT22;48506;48.202;16.274;2023-04-06T05:35:53;1.40;78.50
49124;DHT22;48506;48.202;16.274;2023-04-06T05:38:19;1.50;78.30
49124;DHT22;48506;48.202;16.274;2023-04-06T05:40:45;1.60;78.20
49124;DHT22;48506;48.202;16.274;2023-04-06T05:43:11;1.70;77.90
49124;DHT22;48506;48.202;16.274;2023-04-06T05:45:37;1.80;77.70
49124;DHT22;48506;48.202;16.274;2023-04-06T05:48:03;1.90;77.60
49124;DHT22;48506;48.202;16.274;2023-04-06T05:50:29;1.90;77.60
49124;DHT22;48506;48.202;16.274;2023-04-06T05:52:55;2.00;77.50
49124;DHT22;48506;48.202;16.274;2023-04-06T05:55:21;2.10;77.00
49124;DHT22;48506;48.202;16.274;2023-04-06T05:57:47;2.20;76.90
49124;DHT22;48506;48.202;16.274;2023-04-06T06:00:13;2.30;76.80
49124;DHT22;48506;48.202;16.274;2023-04-06T06:02:41;2.40;76.70
49124;DHT22;48506;48.202;16.274;2023-04-06T06:05:09;2.40;76.30
49124;DHT22;48506;48.202;16.274;2023-04-06T06:07:36;2.60;76.40
49124;DHT22;48506;48.202;16.274;2023-04-06T06:10:02;2.70;76.10
49124;DHT22;48506;48.202;16.274;2023-04-06T06:12:29;2.90;75.40
49124;DHT22;48506;48.202;16.274;2023-04-06T06:14:55;3.10;75.30
49124;DHT22;48506;48.202;16.274;2023-04-06T06:17:21;3.20;74.00
49124;DHT22;48506;48.202;16.274;2023-04-06T06:19:47;3.30;74.40
49124;DHT22;48506;48.202;16.274;2023-04-06T06:22:13;3.50;73.20
49124;DHT22;48506;48.202;16.274;2023-04-06T06:24:39;3.70;72.70
49124;DHT22;48506;48.202;16.274;2023-04-06T06:27:05;3.90;72.40
49124;DHT22;48506;48.202;16.274;2023-04-06T06:29:33;4.00;71.40
49124;DHT22;48506;48.202;16.274;2023-04-06T06:32:00;4.10;71.50
49124;DHT22;48506;48.202;16.274;2023-04-06T06:34:26;4.20;71.20
49124;DHT22;48506;48.202;16.274;2023-04-06T06:36:52;4.30;71.00
49124;DHT22;48506;48.202;16.274;2023-04-06T06:39:21;4.40;71.40
49124;DHT22;48506;48.202;16.274;2023-04-06T06:41:47;4.60;70.80
49124;DHT22;48506;48.202;16.274;2023-04-06T06:44:13;4.60;70.60
49124;DHT22;48506;48.202;16.274;2023-04-06T06:46:39;4.80;70.20
49124;DHT22;48506;48.202;16.274;2023-04-06T06:49:05;4.90;70.40
49124;DHT22;48506;48.202;16.274;2023-04-06T06:51:32;5.00;70.40
49124;DHT22;48506;48.202;16.274;2023-04-06T06:53:58;5.10;69.90
49124;DHT22;48506;48.202;16.274;2023-04-06T06:56:24;5.20;69.50
49124;DHT22;48506;48.202;16.274;2023-04-06T06:58:51;5.30;69.40
49124;DHT22;48506;48.202;16.274;2023-04-06T07:01:18;5.30;69.70
49124;DHT22;48506;48.202;16.274;2023-04-06T07:03:44;5.30;69.70
49124;DHT22;48506;48.202;16.274;2023-04-06T07:06:10;5.50;70.20
49124;DHT22;48506;48.202;16.274;2023-04-06T07:08:36;5.70;69.80
49124;DHT22;48506;48.202;16.274;2023-04-06T07:11:02;5.80;69.00
49124;DHT22;48506;48.202;16.274;2023-04-06T07:13:28;5.90;69.30
49124;DHT22;48506;48.202;16.274;2023-04-06T07:15:54;6.00;68.60
49124;DHT22;48506;48.202;16.274;2023-04-06T07:18:22;6.10;68.90
49124;DHT22;48506;48.202;16.274;2023-04-06T07:20:49;6.30;69.00
49124;DHT22;48506;48.202;16.274;2023-04-06T07:23:14;6.40;69.10
49124;DHT22;48506;48.202;16.274;2023-04-06T07:25:41;6.60;68.70
49124;DHT22;48506;48.202;16.274;2023-04-06T07:28:07;6.70;68.10
49124;DHT22;48506;48.202;16.274;2023-04-06T07:30:33;6.80;68.50
49124;DHT22;48506;48.202;16.274;2023-04-06T07:32:59;7.00;68.50
49124;DHT22;48506;48.202;16.274;2023-04-06T07:35:27;7.20;68.20
49124;DHT22;48506;48.202;16.274;2023-04-06T07:37:53;7.30;67.90
49124;DHT22;48506;48.202;16.274;2023-04-06T07:40:20;7.50;67.90
49124;DHT22;48506;48.202;16.274;2023-04-06T07:42:47;7.70;68.30
49124;DHT22;48506;48.202;16.274;2023-04-06T07:45:14;7.80;67.40
49124;DHT22;48506;48.202;16.274;2023-04-06T07:47:42;7.90;66.70
49124;DHT22;48506;48.202;16.274;2023-04-06T07:50:08;7.90;66.10
49124;DHT22;48506;48.202;16.274;2023-04-06T07:52:35;7.90;65.50
49124;DHT22;48506;48.202;16.274;2023-04-06T07:55:01;8.00;65.80
49124;DHT22;48506;48.202;16.274;2023-04-06T07:57:26;8.10;66.10
49124;DHT22;48506;48.202;16.274;2023-04-06T07:59:52;8.20;65.70
49124;DHT22;48506;48.202;16.274;2023-04-06T08:02:19;8.40;65.10
49124;DHT22;48506;48.202;16.274;2023-04-06T08:04:45;8.60;64.60
49124;DHT22;48506;48.202;16.274;2023-04-06T08:07:13;8.80;64.60
49124;DHT22;48506;48.202;16.274;2023-04-06T08:09:39;8.90;64.00
49124;DHT22;48506;48.202;16.274;2023-04-06T08:12:05;9.00;64.60
49124;DHT22;48506;48.202;16.274;2023-04-06T08:14:31;9.20;63.40
49124;DHT22;48506;48.202;16.274;2023-04-06T08:16:59;9.30;62.90
49124;DHT22;48506;48.202;16.274;2023-04-06T08:19:25;9.40;61.80
49124;DHT22;48506;48.202;16.274;2023-04-06T08:21:51;9.30;62.10
49124;DHT22;48506;48.202;16.274;2023-04-06T08:24:18;9.30;62.60
49124;DHT22;48506;48.202;16.274;2023-04-06T08:26:44;9.20;63.30
49124;DHT22;48506;48.202;16.274;2023-04-06T08:29:11;9.40;63.50
49124;DHT22;48506;48.202;16.274;2023-04-06T08:31:37;9.60;63.70
49124;DHT22;48506;48.202;16.274;2023-04-06T08:34:04;9.80;63.20
49124;DHT22;48506;48.202;16.274;2023-04-06T08:36:31;10.10;62.50
49124;DHT22;48506;48.202;16.274;2023-04-06T08:38:58;10.20;61.80
49124;DHT22;48506;48.202;16.274;2023-04-06T08:41:25;10.30;61.10
49124;DHT22;48506;48.202;16.274;2023-04-06T08:43:59;10.40;61.20
49124;DHT22;48506;48.202;16.274;2023-04-06T08:46:26;10.40;60.80
49124;DHT22;48506;48.202;16.274;2023-04-06T08:49:00;10.40;60.60
49124;DHT22;48506;48.202;16.274;2023-04-06T08:51:27;10.30;60.60
49124;DHT22;48506;48.202;16.274;2023-04-06T08:53:56;10.30;61.20
49124;DHT22;48506;48.202;16.274;2023-04-06T08:56:26;10.40;60.70
49124;DHT22;48506;48.202;16.274;2023-04-06T08:58:54;10.50;60.10
49124;DHT22;48506;48.202;16.274;2023-04-06T09:01:25;10.60;61.10
49124;DHT22;48506;48.202;16.274;2023-04-06T09:03:56;10.90;60.90
49124;DHT22;48506;48.202;16.274;2023-04-06T09:06:24;11.10;59.50
49124;DHT22;48506;48.202;16.274;2023-04-06T09:08:50;11.30;59.00
49124;DHT22;48506;48.202;16.274;2023-04-06T09:11:16;11.00;58.40
49124;DHT22;48506;48.202;16.274;2023-04-06T09:13:53;10.90;58.50
49124;DHT22;48506;48.202;16.274;2023-04-06T09:16:20;10.90;58.10
49124;DHT22;48506;48.202;16.274;2023-04-06T09:18:47;11.10;59.40
49124;DHT22;48506;48.202;16.274;2023-04-06T09:21:17;11.40;58.80
49124;DHT22;48506;48.202;16.274;2023-04-06T09:23:43;11.60;58.50
49124;DHT22;48506;48.202;16.274;2023-04-06T09:26:17;11.60;58.40
49124;DHT22;48506;48.202;16.274;2023-04-06T09:28:54;11.60;57.50
49124;DHT22;48506;48.202;16.274;2023-04-06T09:31:25;11.50;57.70
49124;DHT22;48506;48.202;16.274;2023-04-06T09:33:53;11.50;56.70
49124;DHT22;48506;48.202;16.274;2023-04-06T09:36:20;11.60;58.70
49124;DHT22;48506;48.202;16.274;2023-04-06T09:38:59;11.80;56.60
49124;DHT22;48506;48.202;16.274;2023-04-06T09:41:27;11.80;55.40
49124;DHT22;48506;48.202;16.274;2023-04-06T09:44:04;11.80;56.70
49124;DHT22;48506;48.202;16.274;2023-04-06T09:46:37;11.70;55.10
49124;DHT22;48506;48.202;16.274;2023-04-06T09:49:05;11.80;53.00
49124;DHT22;48506;48.202;16.274;2023-04-06T09:51:40;11.80;53.60
49124;DHT22;48506;48.202;16.274;2023-04-06T09:54:07;12.00;54.80
49124;DHT22;48506;48.202;16.274;2023-04-06T09:56:46;12.20;54.40
49124;DHT22;48506;48.202;16.274;2023-04-06T09:59:37;12.50;55.00
49124;DHT22;48506;48.202;16.274;2023-04-06T10:02:11;12.90;51.80
49124;DHT22;48506;48.202;16.274;2023-04-06T10:04:46;12.90;50.90
49124;DHT22;48506;48.202;16.274;2023-04-06T10:07:14;12.70;51.70
49124;DHT22;48506;48.202;16.274;2023-04-06T10:09:45;12.70;52.70
49124;DHT22;48506;48.202;16.274;2023-04-06T10:12:12;12.80;51.90
49124;DHT22;48506;48.202;16.274;2023-04-06T10:14:39;13.00;50.50
49124;DHT22;48506;48.202;16.274;2023-04-06T10:17:07;13.10;49.30
49124;DHT22;48506;48.202;16.274;2023-04-06T10:19:41;13.10;51.60
49124;DHT22;48506;48.202;16.274;2023-04-06T10:22:10;13.00;51.50
49124;DHT22;48506;48.202;16.274;2023-04-06T10:24:38;12.70;49.90
49124;DHT22;48506;48.202;16.274;2023-04-06T10:27:06;12.70;51.90
49124;DHT22;48506;48.202;16.274;2023-04-06T10:29:45;12.90;49.80
49124;DHT22;48506;48.202;16.274;2023-04-06T10:32:13;12.80;49.00
49124;DHT22;48506;48.202;16.274;2023-04-06T10:34:39;12.50;49.10
49124;DHT22;48506;48.202;16.274;2023-04-06T10:37:13;12.70;50.40
49124;DHT22;48506;48.202;16.274;2023-04-06T10:39:55;12.60;49.30
49124;DHT22;48506;48.202;16.274;2023-04-06T10:42:25;12.70;49.80
49124;DHT22;48506;48.202;16.274;2023-04-06T10:45:01;13.10;49.70
49124;DHT22;48506;48.202;16.274;2023-04-06T10:47:42;13.30;47.70
49124;DHT22;48506;48.202;16.274;2023-04-06T10:50:11;13.40;48.40
49124;DHT22;48506;48.202;16.274;2023-04-06T10:52:40;13.40;48.70
49124;DHT22;48506;48.202;16.274;2023-04-06T10:55:09;13.60;48.90
49124;DHT22;48506;48.202;16.274;2023-04-06T10:57:36;13.80;48.90
49124;DHT22;48506;48.202;16.274;2023-04-06T11:00:04;13.70;47.20
49124;DHT22;48506;48.202;16.274;2023-04-06T11:02:31;13.60;48.00
49124;DHT22;48506;48.202;16.274;2023-04-06T11:04:58;13.50;49.10
49124;DHT22;48506;48.202;16.274;2023-04-06T11:07:26;13.40;47.60
49124;DHT22;48506;48.202;16.274;2023-04-06T11:09:53;13.40;48.40
49124;DHT22;48506;48.202;16.274;2023-04-06T11:12:27;13.50;48.20
49124;DHT22;48506;48.202;16.274;2023-04-06T11:14:58;13.60;48.50
49124;DHT22;48506;48.202;16.274;2023-04-06T11:17:36;13.70;47.60
49124;DHT22;48506;48.202;16.274;2023-04-06T11:20:03;13.80;47.70
49124;DHT22;48506;48.202;16.274;2023-04-06T11:22:31;13.70;48.10
49124;DHT22;48506;48.202;16.274;2023-04-06T11:25:07;13.70;49.00
49124;DHT22;48506;48.202;16.274;2023-04-06T11:27:34;14.00;47.90
49124;DHT22;48506;48.202;16.274;2023-04-06T11:30:01;14.10;47.20
49124;DHT22;48506;48.202;16.274;2023-04-06T11:32:28;13.90;45.80
49124;DHT22;48506;48.202;16.274;2023-04-06T11:34:54;13.60;45.10
49124;DHT22;48506;48.202;16.274;2023-04-06T11:37:20;13.40;47.30
49124;DHT22;48506;48.202;16.274;2023-04-06T11:39:50;13.50;46.40
49124;DHT22;48506;48.202;16.274;2023-04-06T11:42:28;13.60;47.10
49124;DHT22;48506;48.202;16.274;2023-04-06T11:44:58;13.40;46.00
49124;DHT22;48506;48.202;16.274;2023-04-06T11:49:54;13.90;46.60
49124;DHT22;48506;48.202;16.274;2023-04-06T11:52:24;14.30;46.10
49124;DHT22;48506;48.202;16.274;2023-04-06T11:54:52;14.50;45.70
49124;DHT22;48506;48.202;16.274;2023-04-06T11:57:21;14.50;45.50
49124;DHT22;48506;48.202;16.274;2023-04-06T11:59:50;14.50;45.40
49124;DHT22;48506;48.202;16.274;2023-04-06T12:02:16;14.60;44.70
49124;DHT22;48506;48.202;16.274;2023-04-06T12:04:43;14.80;46.40
49124;DHT22;48506;48.202;16.274;2023-04-06T12:07:09;14.80;44.40
49124;DHT22;48506;48.202;16.274;2023-04-06T12:09:35;14.80;45.70
49124;DHT22;48506;48.202;16.274;2023-04-06T12:12:03;14.90;43.60
49124;DHT22;48506;48.202;16.274;2023-04-06T12:14:30;14.70;45.10
49124;DHT22;48506;48.202;16.274;2023-04-06T12:16:57;14.80;45.60
49124;DHT22;48506;48.202;16.274;2023-04-06T12:19:23;15.00;45.10
49124;DHT22;48506;48.202;16.274;2023-04-06T12:21:54;15.00;44.90
49124;DHT22;48506;48.202;16.274;2023-04-06T12:24:20;15.20;45.00
49124;DHT22;48506;48.202;16.274;2023-04-06T12:26:47;15.50;45.80
49124;DHT22;48506;48.202;16.274;2023-04-06T12:29:13;15.70;44.90
49124;DHT22;48506;48.202;16.274;2023-04-06T12:31:40;15.50;44.80
49124;DHT22;48506;48.202;16.274;2023-04-06T12:34:08;15.50;43.00
49124;DHT22;48506;48.202;16.274;2023-04-06T12:36:34;15.40;45.30
49124;DHT22;48506;48.202;16.274;2023-04-06T12:39:00;15.70;45.90
49124;DHT22;48506;48.202;16.274;2023-04-06T12:41:28;15.90;44.50
49124;DHT22;48506;48.202;16.274;2023-04-06T12:43:55;16.10;42.90
49124;DHT22;48506;48.202;16.274;2023-04-06T12:46:23;16.00;43.60
49124;DHT22;48506;48.202;16.274;2023-04-06T12:48:51;15.90;43.10
49124;DHT22;48506;48.202;16.274;2023-04-06T12:51:19;15.80;43.50
49124;DHT22;48506;48.202;16.274;2023-04-06T12:53:47;15.80;43.80
49124;DHT22;48506;48.202;16.274;2023-04-06T12:56:15;15.80;44.20
49124;DHT22;48506;48.202;16.274;2023-04-06T12:58:43;15.90;44.10
49124;DHT22;48506;48.202;16.274;2023-04-06T13:01:10;15.80;43.70
49124;DHT22;48506;48.202;16.274;2023-04-06T13:03:39;15.90;43.20
49124;DHT22;48506;48.202;16.274;2023-04-06T13:06:06;15.70;42.80
49124;DHT22;48506;48.202;16.274;2023-04-06T13:08:34;15.40;43.20
49124;DHT22;48506;48.202;16.274;2023-04-06T13:11:04;15.30;44.90
49124;DHT22;48506;48.202;16.274;2023-04-06T13:13:31;15.30;44.30
49124;DHT22;48506;48.202;16.274;2023-04-06T13:16:02;15.30;43.90
49124;DHT22;48506;48.202;16.274;2023-04-06T13:18:30;15.40;44.10
49124;DHT22;48506;48.202;16.274;2023-04-06T13:20:57;15.10;43.00
49124;DHT22;48506;48.202;16.274;2023-04-06T13:23:23;14.80;43.90
49124;DHT22;48506;48.202;16.274;2023-04-06T13:25:59;14.50;44.10
49124;DHT22;48506;48.202;16.274;2023-04-06T13:28:27;14.30;45.90
49124;DHT22;48506;48.202;16.274;2023-04-06T13:30:54;14.70;46.70
49124;DHT22;48506;48.202;16.274;2023-04-06T13:33:22;15.10;43.90
49124;DHT22;48506;48.202;16.274;2023-04-06T13:35:48;15.20;43.60
49124;DHT22;48506;48.202;16.274;2023-04-06T13:38:14;15.30;44.40
49124;DHT22;48506;48.202;16.274;2023-04-06T13:40:42;15.50;44.50
49124;DHT22;48506;48.202;16.274;2023-04-06T13:43:08;15.70;45.30
49124;DHT22;48506;48.202;16.274;2023-04-06T13:45:34;16.10;44.20
49124;DHT22;48506;48.202;16.274;2023-04-06T13:48:00;16.40;43.10
49124;DHT22;48506;48.202;16.274;2023-04-06T13:50:26;16.50;42.90
49124;DHT22;48506;48.202;16.274;2023-04-06T13:52:53;16.30;42.60
49124;DHT22;48506;48.202;16.274;2023-04-06T13:55:21;16.00;42.00
49124;DHT22;48506;48.202;16.274;2023-04-06T13:57:47;15.90;43.80
49124;DHT22;48506;48.202;16.274;2023-04-06T14:00:13;16.30;41.70
49124;DHT22;48506;48.202;16.274;2023-04-06T14:02:41;16.30;42.60
49124;DHT22;48506;48.202;16.274;2023-04-06T14:05:07;16.20;42.30
49124;DHT22;48506;48.202;16.274;2023-04-06T14:07:33;16.20;42.70
49124;DHT22;48506;48.202;16.274;2023-04-06T14:09:59;16.20;43.10
49124;DHT22;48506;48.202;16.274;2023-04-06T14:12:25;16.50;42.90
49124;DHT22;48506;48.202;16.274;2023-04-06T14:14:53;16.80;43.80
49124;DHT22;48506;48.202;16.274;2023-04-06T14:17:19;17.20;42.80
49124;DHT22;48506;48.202;16.274;2023-04-06T14:19:45;17.10;41.80
49124;DHT22;48506;48.202;16.274;2023-04-06T14:22:11;17.10;40.70
49124;DHT22;48506;48.202;16.274;2023-04-06T14:24:37;17.00;41.10
49124;DHT22;48506;48.202;16.274;2023-04-06T14:27:03;17.20;41.00
49124;DHT22;48506;48.202;16.274;2023-04-06T14:29:30;17.20;42.10
49124;DHT22;48506;48.202;16.274;2023-04-06T14:31:56;17.10;40.30
49124;DHT22;48506;48.202;16.274;2023-04-06T14:34:28;17.30;42.40
49124;DHT22;48506;48.202;16.274;2023-04-06T14:36:55;17.40;41.20
49124;DHT22;48506;48.202;16.274;2023-04-06T14:39:21;17.10;40.00
49124;DHT22;48506;48.202;16.274;2023-04-06T14:41:48;16.80;40.30
49124;DHT22;48506;48.202;16.274;2023-04-06T14:44:15;16.60;40.50
49124;DHT22;48506;48.202;16.274;2023-04-06T14:46:42;16.70;42.00
49124;DHT22;48506;48.202;16.274;2023-04-06T14:49:08;16.80;41.90
49124;DHT22;48506;48.202;16.274;2023-04-06T14:51:34;17.10;40.70
49124;DHT22;48506;48.202;16.274;2023-04-06T14:54:01;16.80;40.40
49124;DHT22;48506;48.202;16.274;2023-04-06T14:56:29;16.70;40.90
49124;DHT22;48506;48.202;16.274;2023-04-06T14:58:58;16.60;40.80
49124;DHT22;48506;48.202;16.274;2023-04-06T15:01:27;16.70;40.50
49124;DHT22;48506;48.202;16.274;2023-04-06T15:03:53;16.40;41.30
49124;DHT22;48506;48.202;16.274;2023-04-06T15:06:20;16.20;41.70
49124;DHT22;48506;48.202;16.274;2023-04-06T15:08:48;16.30;42.20
49124;DHT22;48506;48.202;16.274;2023-04-06T15:11:15;16.30;42.20
49124;DHT22;48506;48.202;16.274;2023-04-06T15:13:42;16.50;42.70
49124;DHT22;48506;48.202;16.274;2023-04-06T15:16:08;16.30;41.70
49124;DHT22;48506;48.202;16.274;2023-04-06T15:18:34;15.80;41.30
49124;DHT22;48506;48.202;16.274;2023-04-06T15:21:01;15.80;42.20
49124;DHT22;48506;48.202;16.274;2023-04-06T15:23:27;16.20;42.00
49124;DHT22;48506;48.202;16.274;2023-04-06T15:25:57;16.60;40.80
49124;DHT22;48506;48.202;16.274;2023-04-06T15:28:23;17.00;40.60